Giewont — C6YE4 — position and weather

sailwx.info

Track history (hours):
 
Tides and Currents Weather Stations Pressure Air Temp Water Temp Dewpoint Dewpoint Depression Visibility Wind Speed Wind Dir Waves Ship Positions

Giewont

Last reported at 2015-Aug-29 19:31 UTC. Time now 2015-Sep-03 06:54 UTC.
Position N 03°10' E 100°39'.

Length 229 m; draft 8.9 m.

Type: Cargo ship. MMSI: 311029800.

Date/timePositionNaut miles runAvg speedWind from/ knotsBaromVisibWave heightAir tempDewpointWater temp
2015-Aug-29 19:31N 03°10' E 100°39'1212.9
2015-Aug-29 18:33N 03°02' E 100°48'2814.2
2015-Aug-29 16:33N 02°44' E 101°11'1615.5
2015-Aug-29 15:33N 02°37' E 101°25'1414.4
2015-Aug-29 14:33N 02°29' E 101°37'4112.3
2015-Aug-29 11:13N 02°03' E 102°09'10313.2
2015-Aug-29 03:24N 01°11' E 103°37'1011.3
2015-Aug-29 02:33N 01°10' E 103°47'1313.3
2015-Aug-29 01:33N 01°15' E 103°59'2 1.8
2015-Aug-29 00:26N 01°17' E 103°60'0 0.1
2015-Aug-28 23:29N 01°17' E 103°60'0 0.1
2015-Aug-28 22:29N 01°17' E 103°60'0 0.0
2015-Aug-28 18:29N 01°17' E 103°60'0 0.0
2015-Aug-28 16:20N 01°17' E 103°60'0 0.6
2015-Aug-28 15:33N 01°17' E 103°59'2 1.7
2015-Aug-28 14:33N 01°16' E 104°01'5 5.3
2015-Aug-28 13:33N 01°19' E 104°05'12 9.4
2015-Aug-28 12:15N 01°26' E 103°55'  
2015-Aug-22 20:34N 01°20' E 104°04'4 3.2
2015-Aug-22 19:24N 01°18' E 104°07'0 0.0
2015-Aug-22 17:33N 01°18' E 104°07'160 4.1
2015-Aug-21 02:26N 02°23' E 101°41'2714.3
2015-Aug-21 00:33N 02°37' E 101°18'1713.9
2015-Aug-20 23:19N 02°46' E 101°03'2413.7
2015-Aug-20 21:33N 02°60' E 100°44'2713.1
2015-Aug-20 19:27N 03°22' E 100°27'123 8.3
2015-Aug-20 04:33N 05°25' E 100°21'3 3.3
2015-Aug-20 03:32N 05°22' E 100°22'0 0.0
2015-Aug-20 02:32N 05°22' E 100°22'0 0.0
2015-Aug-20 01:32N 05°22' E 100°22'0 0.0
2015-Aug-20 00:32N 05°22' E 100°22'0 0.0
2015-Aug-19 23:32N 05°22' E 100°22'0 0.0
2015-Aug-19 22:32N 05°22' E 100°22'0 0.0
2015-Aug-19 21:32N 05°22' E 100°22'0 0.0
2015-Aug-19 20:26N 05°22' E 100°22'0 0.0
2015-Aug-19 19:32N 05°22' E 100°22'  
Track history (hours):
 
Tides and Currents Weather Stations Pressure Air Temp Water Temp Dewpoint Dewpoint Depression Visibility Wind Speed Wind Dir Waves Ship Positions

Giewont

Last reported at 2015-Aug-29 19:31 UTC. Time now 2015-Sep-03 06:54 UTC.
Position N 03°10' E 100°39'.

Length 229 m; draft 8.9 m.

Type: Cargo ship. MMSI: 311029800.

Date/timePositionNaut miles runAvg speedWind from/ knotsBaromVisibWave heightAir tempDewpointWater temp
2015-Aug-29 19:31N 03°10' E 100°39'1212.9
2015-Aug-29 18:33N 03°02' E 100°48'2814.2
2015-Aug-29 16:33N 02°44' E 101°11'1615.5
2015-Aug-29 15:33N 02°37' E 101°25'1414.4
2015-Aug-29 14:33N 02°29' E 101°37'4112.3
2015-Aug-29 11:13N 02°03' E 102°09'10313.2
2015-Aug-29 03:24N 01°11' E 103°37'1011.3
2015-Aug-29 02:33N 01°10' E 103°47'1313.3
2015-Aug-29 01:33N 01°15' E 103°59'2 1.8
2015-Aug-29 00:26N 01°17' E 103°60'0 0.1
2015-Aug-28 23:29N 01°17' E 103°60'0 0.1
2015-Aug-28 22:29N 01°17' E 103°60'0 0.0
2015-Aug-28 18:29N 01°17' E 103°60'0 0.0
2015-Aug-28 16:20N 01°17' E 103°60'0 0.6
2015-Aug-28 15:33N 01°17' E 103°59'2 1.7
2015-Aug-28 14:33N 01°16' E 104°01'5 5.3
2015-Aug-28 13:33N 01°19' E 104°05'12 9.4
2015-Aug-28 12:15N 01°26' E 103°55'  
2015-Aug-22 20:34N 01°20' E 104°04'4 3.2
2015-Aug-22 19:24N 01°18' E 104°07'0 0.0
2015-Aug-22 17:33N 01°18' E 104°07'160 4.1
2015-Aug-21 02:26N 02°23' E 101°41'2714.3
2015-Aug-21 00:33N 02°37' E 101°18'1713.9
2015-Aug-20 23:19N 02°46' E 101°03'2413.7
2015-Aug-20 21:33N 02°60' E 100°44'2713.1
2015-Aug-20 19:27N 03°22' E 100°27'123 8.3
2015-Aug-20 04:33N 05°25' E 100°21'3 3.3
2015-Aug-20 03:32N 05°22' E 100°22'0 0.0
2015-Aug-20 02:32N 05°22' E 100°22'0 0.0
2015-Aug-20 01:32N 05°22' E 100°22'0 0.0
2015-Aug-20 00:32N 05°22' E 100°22'0 0.0
2015-Aug-19 23:32N 05°22' E 100°22'0 0.0
2015-Aug-19 22:32N 05°22' E 100°22'0 0.0
2015-Aug-19 21:32N 05°22' E 100°22'0 0.0
2015-Aug-19 20:26N 05°22' E 100°22'0 0.0
2015-Aug-19 19:32N 05°22' E 100°22'  

Dump ship's entire track history